Time;durP1;ratioP1;P1;durP2;ratioP2;P2;SDS_P1;SDS_P2;PMS_P1;PMS_P2;Temp;Humidity;BMP_temperature;BMP_pressure;BME280_temperature;BME280_humidity;BME280_pressure;Samples;Min_cycle;Max_cycle;Signal;HPM_P1;HPM_P2
2022/12/31 00:01:09;;;;;;;8.25;3.72;;;11.60;99.90;;;;;;5012557;28;19925;-63
2022/12/31 00:03:35;;;;;;;6.05;3.25;;;11.50;99.90;;;;;;5011466;28;20037;-65
2022/12/31 00:06:01;;;;;;;4.57;2.95;;;11.40;99.90;;;;;;5014794;28;20045;-65
2022/12/31 00:08:26;;;;;;;7.55;3.60;;;11.40;99.90;;;;;;5017666;28;20531;-65
2022/12/31 00:10:52;;;;;;;7.65;3.72;;;11.30;99.90;;;;;;5019932;28;20041;-64
2022/12/31 00:13:18;;;;;;;6.13;3.53;;;11.20;99.90;;;;;;5021151;28;20041;-64
2022/12/31 00:15:43;;;;;;;6.00;3.88;;;11.30;99.90;;;;;;5020229;28;20049;-65
2022/12/31 00:18:10;;;;;;;8.60;4.53;;;11.30;99.90;;;;;;5032882;28;20037;-64
2022/12/31 00:20:40;;;;;;;7.18;4.50;;;11.30;99.90;;;;;;5021998;28;20041;-65
2022/12/31 00:23:07;;;;;;;7.15;5.03;;;11.20;99.90;;;;;;5019007;28;20038;-66
2022/12/31 00:25:35;;;;;;;7.28;4.82;;;11.20;99.90;;;;;;5021962;28;20044;-65
2022/12/31 00:28:01;;;;;;;9.10;5.88;;;11.30;99.90;;;;;;5021560;28;20694;-65
2022/12/31 00:30:26;;;;;;;10.95;6.07;;;11.20;99.90;;;;;;5016755;28;20041;-63
2022/12/31 00:32:52;;;;;;;10.10;5.45;;;11.20;99.90;;;;;;5028185;28;20112;-65
2022/12/31 00:35:17;;;;;;;8.50;5.35;;;11.30;99.90;;;;;;5022139;28;20037;-64
2022/12/31 00:37:43;;;;;;;10.15;5.65;;;11.20;99.90;;;;;;5021671;28;20033;-65
2022/12/31 00:40:09;;;;;;;7.57;5.10;;;11.30;99.90;;;;;;5012379;28;20045;-65
2022/12/31 00:42:35;;;;;;;9.02;4.88;;;11.30;99.90;;;;;;5025548;28;20041;-65
2022/12/31 00:45:00;;;;;;;8.70;4.90;;;11.30;99.90;;;;;;5023437;28;20042;-64
2022/12/31 00:47:26;;;;;;;9.70;5.63;;;11.30;99.90;;;;;;5028016;28;20041;-63
2022/12/31 00:49:51;;;;;;;11.35;5.20;;;11.30;99.90;;;;;;5029668;28;20049;-65
2022/12/31 00:52:17;;;;;;;10.85;5.15;;;11.30;99.90;;;;;;5023230;28;20581;-65
2022/12/31 00:54:43;;;;;;;10.07;5.63;;;11.40;99.90;;;;;;5022688;28;20033;-64
2022/12/31 00:57:08;;;;;;;12.07;5.88;;;11.30;99.90;;;;;;5023760;28;20553;-64
2022/12/31 00:59:34;;;;;;;11.23;6.05;;;11.30;99.90;;;;;;5021176;28;20088;-64
2022/12/31 01:02:00;;;;;;;11.00;6.10;;;11.30;99.90;;;;;;5022610;28;20064;-65
2022/12/31 01:04:25;;;;;;;10.60;5.78;;;11.30;99.90;;;;;;5027473;28;20037;-64
2022/12/31 01:06:51;;;;;;;8.73;5.15;;;11.40;99.90;;;;;;5020785;28;20052;-64
2022/12/31 01:09:16;;;;;;;9.73;5.57;;;11.30;99.90;;;;;;5027837;28;20067;-64
2022/12/31 01:11:42;;;;;;;9.23;5.20;;;11.30;99.90;;;;;;5025102;28;20033;-64
2022/12/31 01:14:11;;;;;;;9.85;5.03;;;11.30;99.90;;;;;;5022369;28;20052;-64
2022/12/31 01:16:45;;;;;;;10.13;4.93;;;11.30;99.90;;;;;;5021155;28;20358;-65
2022/12/31 01:19:14;;;;;;;9.43;5.18;;;11.30;99.90;;;;;;5024149;28;20037;-64
2022/12/31 01:21:41;;;;;;;12.63;5.57;;;11.30;99.90;;;;;;5021122;28;20037;-65
2022/12/31 01:24:08;;;;;;;10.52;5.82;;;11.40;99.90;;;;;;5018542;28;20304;-64
2022/12/31 01:26:34;;;;;;;9.48;5.10;;;11.40;99.90;;;;;;5015001;28;20464;-66
2022/12/31 01:29:00;;;;;;;9.30;5.15;;;11.40;99.90;;;;;;5022741;28;20076;-64
2022/12/31 01:31:26;;;;;;;11.45;5.28;;;11.30;99.90;;;;;;5019726;28;20044;-64
2022/12/31 01:33:52;;;;;;;8.68;5.47;;;11.30;99.90;;;;;;5015333;28;20045;-64
2022/12/31 01:36:21;;;;;;;11.63;5.53;;;11.30;99.90;;;;;;5013482;28;20038;-65
2022/12/31 01:38:47;;;;;;;8.90;5.32;;;11.30;99.90;;;;;;5024363;28;20037;-64
2022/12/31 01:41:18;;;;;;;11.57;5.43;;;11.30;99.90;;;;;;5019660;28;20404;-65
2022/12/31 01:44:10;;;;;;;9.55;5.70;;;11.30;99.90;;;;;;5023142;28;20072;-65
2022/12/31 01:46:46;;;;;;;9.57;5.32;;;11.30;99.90;;;;;;5006570;28;20045;-64
2022/12/31 01:49:21;;;;;;;10.57;5.20;;;11.30;99.90;;;;;;5025079;28;20044;-65
2022/12/31 01:51:55;;;;;;;10.63;5.38;;;11.20;99.90;;;;;;5013574;28;20128;-64
2022/12/31 01:54:24;;;;;;;10.57;5.70;;;11.20;99.90;;;;;;5017609;28;20068;-65
2022/12/31 01:56:52;;;;;;;13.43;5.75;;;11.20;99.90;;;;;;5017469;28;20185;-64
2022/12/31 01:59:20;;;;;;;9.10;4.82;;;11.20;99.90;;;;;;5021249;28;20099;-64
2022/12/31 02:01:47;;;;;;;15.63;5.75;;;11.10;99.90;;;;;;5023965;28;20454;-64
2022/12/31 02:04:15;;;;;;;10.07;4.90;;;11.20;99.90;;;;;;5023165;28;20516;-65
2022/12/31 02:06:45;;;;;;;12.82;5.50;;;11.20;99.90;;;;;;5012983;28;20041;-64
2022/12/31 02:09:11;;;;;;;11.77;5.25;;;11.10;99.90;;;;;;5016705;28;20076;-65
2022/12/31 02:11:37;;;;;;;8.25;4.63;;;11.10;99.90;;;;;;5019344;28;20069;-65
2022/12/31 02:14:11;;;;;;;10.55;5.30;;;11.10;99.90;;;;;;5025866;28;20473;-64
2022/12/31 02:16:56;;;;;;;9.77;4.97;;;11.10;99.90;;;;;;5015312;28;20401;-65
2022/12/31 02:19:59;;;;;;;8.02;4.57;;;11.10;99.90;;;;;;5023589;28;20482;-66
2022/12/31 02:22:27;;;;;;;10.32;4.93;;;11.10;99.90;;;;;;5015991;28;20040;-66
2022/12/31 02:25:08;;;;;;;7.57;4.45;;;11.10;99.90;;;;;;5009044;28;20037;-66
2022/12/31 02:27:43;;;;;;;11.57;4.88;;;11.10;99.90;;;;;;5014126;28;20751;-66
2022/12/31 02:30:31;;;;;;;10.55;4.85;;;11.10;99.90;;;;;;5020095;28;20409;-66
2022/12/31 02:32:59;;;;;;;10.32;4.80;;;11.00;99.90;;;;;;5019504;28;20056;-65
2022/12/31 02:35:33;;;;;;;10.65;4.35;;;11.00;99.90;;;;;;5023381;28;20041;-67
2022/12/31 02:38:06;;;;;;;9.35;3.80;;;11.00;99.90;;;;;;5015508;28;20029;-67
2022/12/31 02:40:35;;;;;;;7.55;3.80;;;11.00;99.90;;;;;;5020833;28;20045;-67
2022/12/31 02:43:00;;;;;;;5.82;3.40;;;11.00;99.90;;;;;;5023619;28;20053;-67
2022/12/31 02:45:32;;;;;;;6.65;4.05;;;10.90;99.90;;;;;;5019837;28;20439;-67
2022/12/31 02:48:18;;;;;;;7.65;3.40;;;10.90;99.90;;;;;;5028587;28;20045;-68
2022/12/31 02:51:01;;;;;;;6.65;3.28;;;10.90;99.90;;;;;;5022600;28;20050;-67
2022/12/31 02:53:32;;;;;;;7.72;3.55;;;10.90;99.90;;;;;;5017668;28;20044;-66
2022/12/31 02:56:23;;;;;;;5.57;3.03;;;10.80;99.90;;;;;;5020107;28;20053;-67
2022/12/31 03:02:14;;;;;;;7.57;3.13;;;10.80;99.90;;;;;;5019499;28;20041;-67
2022/12/31 03:04:47;;;;;;;5.32;3.08;;;10.80;99.90;;;;;;5015707;28;20034;-68
2022/12/31 03:07:18;;;;;;;8.68;3.10;;;10.80;99.90;;;;;;5015506;28;22304;-67
2022/12/31 03:09:44;;;;;;;4.68;2.55;;;10.70;99.90;;;;;;5014835;28;21553;-68
2022/12/31 03:14:56;;;;;;;7.72;2.15;;;10.70;99.90;;;;;;5016951;28;20041;-67
2022/12/31 03:17:22;;;;;;;4.93;2.47;;;10.70;99.90;;;;;;5018352;28;20041;-68
2022/12/31 03:22:36;;;;;;;6.32;1.67;;;10.60;99.90;;;;;;5012306;28;20588;-67
2022/12/31 03:25:34;;;;;;;5.47;1.45;;;10.50;99.90;;;;;;5016774;28;20049;-66
2022/12/31 03:28:13;;;;;;;4.28;1.20;;;10.50;99.90;;;;;;5012129;28;20053;-67
2022/12/31 03:30:40;;;;;;;3.88;1.30;;;10.50;99.90;;;;;;5025450;28;20535;-67
2022/12/31 03:33:06;;;;;;;4.85;1.30;;;10.50;99.90;;;;;;5018733;28;20033;-68
2022/12/31 03:35:34;;;;;;;2.78;1.45;;;10.40;99.90;;;;;;5023275;28;20104;-67
2022/12/31 03:38:01;;;;;;;5.22;1.55;;;10.40;99.90;;;;;;5013794;28;20046;-67
2022/12/31 03:40:28;;;;;;;5.30;1.30;;;10.40;99.90;;;;;;5022318;28;20057;-68
2022/12/31 03:42:54;;;;;;;3.85;1.38;;;10.40;99.90;;;;;;5024953;28;20034;-67
2022/12/31 03:45:19;;;;;;;2.97;1.35;;;10.40;99.90;;;;;;5026154;28;20040;-68
2022/12/31 03:47:45;;;;;;;2.75;1.17;;;10.40;99.90;;;;;;5031781;28;20041;-67
2022/12/31 03:50:12;;;;;;;4.93;1.33;;;10.40;99.90;;;;;;5022967;28;20156;-67
2022/12/31 03:52:37;;;;;;;3.90;1.60;;;10.30;99.90;;;;;;5025828;28;20044;-66
2022/12/31 03:55:04;;;;;;;4.05;1.20;;;10.30;99.90;;;;;;5024654;28;20120;-67
2022/12/31 03:57:30;;;;;;;6.07;1.63;;;10.30;99.90;;;;;;5030052;28;20034;-67
2022/12/31 03:59:55;;;;;;;3.80;1.75;;;10.30;99.90;;;;;;5021940;28;20041;-67
2022/12/31 04:02:21;;;;;;;4.05;1.63;;;10.30;99.90;;;;;;5019124;28;20041;-67
2022/12/31 04:04:46;;;;;;;4.13;1.88;;;10.30;99.90;;;;;;5026473;28;20095;-68
2022/12/31 04:07:12;;;;;;;4.13;1.77;;;10.30;99.90;;;;;;5024514;28;20096;-67
2022/12/31 04:09:37;;;;;;;6.20;2.08;;;10.40;99.90;;;;;;5026498;28;20045;-68
2022/12/31 04:12:03;;;;;;;5.90;2.60;;;10.30;99.90;;;;;;5017097;28;20537;-68
2022/12/31 04:14:29;;;;;;;7.35;2.55;;;10.40;99.90;;;;;;5028279;28;20052;-69
2022/12/31 04:16:54;;;;;;;6.85;3.00;;;10.40;99.90;;;;;;5023119;28;20479;-67
2022/12/31 04:19:20;;;;;;;5.93;3.05;;;10.40;99.90;;;;;;5028992;28;20148;-67
2022/12/31 04:21:46;;;;;;;8.82;3.35;;;10.50;99.90;;;;;;5018476;28;20041;-67
2022/12/31 04:24:11;;;;;;;7.22;3.60;;;10.40;99.90;;;;;;5023940;28;20480;-68
2022/12/31 04:26:37;;;;;;;7.47;3.75;;;10.40;99.90;;;;;;5029381;28;20037;-69
2022/12/31 04:29:03;;;;;;;9.43;3.65;;;10.50;99.90;;;;;;5022980;28;20184;-67
2022/12/31 04:31:29;;;;;;;7.78;3.92;;;10.40;99.90;;;;;;5027822;28;20386;-68
2022/12/31 04:33:55;;;;;;;8.45;3.47;;;10.40;99.90;;;;;;5030771;28;20041;-67
2022/12/31 04:36:20;;;;;;;11.18;4.30;;;10.50;99.90;;;;;;5011233;28;20041;-68
2022/12/31 04:38:46;;;;;;;11.07;4.20;;;10.50;99.90;;;;;;5027537;28;20095;-68
2022/12/31 04:41:19;;;;;;;9.88;4.03;;;10.50;99.90;;;;;;5023219;28;20073;-68
2022/12/31 04:43:50;;;;;;;9.90;4.18;;;10.50;99.90;;;;;;5026803;28;20040;-68
2022/12/31 04:46:18;;;;;;;10.68;4.40;;;10.50;99.90;;;;;;5024001;28;22276;-69
2022/12/31 04:48:44;;;;;;;8.55;4.80;;;10.50;99.90;;;;;;5026912;28;20466;-68
2022/12/31 04:51:10;;;;;;;9.05;4.30;;;10.50;99.90;;;;;;5027680;28;20041;-68
2022/12/31 04:53:36;;;;;;;10.43;4.78;;;10.50;99.90;;;;;;5028495;28;20398;-69
2022/12/31 04:56:04;;;;;;;8.93;4.65;;;10.50;99.90;;;;;;5025654;28;20058;-68
2022/12/31 04:58:30;;;;;;;8.35;4.13;;;10.50;99.90;;;;;;5023782;28;20512;-69
2022/12/31 05:00:55;;;;;;;9.45;3.83;;;10.50;99.90;;;;;;5024108;28;20033;-69
2022/12/31 05:03:23;;;;;;;6.57;3.90;;;10.50;99.90;;;;;;5020332;28;20065;-69
2022/12/31 05:05:49;;;;;;;7.75;3.72;;;10.50;99.90;;;;;;5024431;28;20405;-69
2022/12/31 05:08:16;;;;;;;8.95;3.75;;;10.50;99.90;;;;;;5013060;28;20053;-68
2022/12/31 05:10:47;;;;;;;8.00;3.25;;;10.40;99.90;;;;;;5025727;28;20807;-68
2022/12/31 05:13:13;;;;;;;9.45;3.78;;;10.40;99.90;;;;;;5024140;28;20049;-68
2022/12/31 05:15:39;;;;;;;8.10;3.47;;;10.40;99.90;;;;;;5031411;28;20052;-69
2022/12/31 05:18:05;;;;;;;9.00;3.17;;;10.40;99.90;;;;;;5023144;28;20037;-68
2022/12/31 05:20:31;;;;;;;9.07;3.10;;;10.40;99.90;;;;;;5028172;28;20036;-69
2022/12/31 05:22:57;;;;;;;8.27;2.90;;;10.40;99.90;;;;;;5024845;28;20048;-68
2022/12/31 05:25:22;;;;;;;5.05;2.80;;;10.40;99.90;;;;;;5015721;28;20031;-69
2022/12/31 05:27:48;;;;;;;6.90;2.80;;;10.30;99.90;;;;;;5018748;28;20049;-68
2022/12/31 05:30:14;;;;;;;7.88;2.83;;;10.40;99.90;;;;;;5015993;28;20172;-68
2022/12/31 05:32:40;;;;;;;8.60;2.72;;;10.40;99.90;;;;;;5026518;28;20037;-69
2022/12/31 05:35:06;;;;;;;6.95;2.78;;;10.40;99.90;;;;;;5024279;28;20053;-69
2022/12/31 05:37:32;;;;;;;6.40;2.83;;;10.40;99.90;;;;;;5016239;28;20793;-69
2022/12/31 05:39:58;;;;;;;8.38;3.15;;;10.40;99.90;;;;;;5016407;28;20045;-69
2022/12/31 05:42:24;;;;;;;9.52;3.25;;;10.40;99.90;;;;;;5017243;28;20464;-68
2022/12/31 05:44:49;;;;;;;5.60;2.83;;;10.40;99.90;;;;;;5031918;28;20116;-68
2022/12/31 05:47:15;;;;;;;8.38;3.58;;;10.40;99.90;;;;;;5020638;28;20037;-67
2022/12/31 05:49:41;;;;;;;9.93;3.78;;;10.40;99.90;;;;;;5017858;28;20068;-68
2022/12/31 05:52:06;;;;;;;9.10;3.83;;;10.40;99.90;;;;;;5017893;28;20501;-67
2022/12/31 05:54:32;;;;;;;7.28;3.67;;;10.40;99.90;;;;;;5017899;28;20041;-69
2022/12/31 05:56:58;;;;;;;11.90;4.68;;;10.40;99.90;;;;;;5019756;28;20830;-69
2022/12/31 05:59:24;;;;;;;6.88;3.95;;;10.40;99.90;;;;;;5027681;28;20091;-68
2022/12/31 06:01:50;;;;;;;8.52;4.40;;;10.40;99.90;;;;;;5012824;28;20868;-68
2022/12/31 06:04:16;;;;;;;9.52;4.28;;;10.40;99.90;;;;;;5012490;28;20053;-70
2022/12/31 06:06:41;;;;;;;7.95;4.90;;;10.40;99.90;;;;;;5016371;28;20045;-68
2022/12/31 06:09:07;;;;;;;9.13;4.80;;;10.40;99.90;;;;;;5023106;28;20056;-67
2022/12/31 06:11:33;;;;;;;11.40;5.45;;;10.40;99.90;;;;;;5022763;28;20506;-67
2022/12/31 06:13:58;;;;;;;9.68;5.20;;;10.50;99.90;;;;;;5012250;28;20086;-67
2022/12/31 06:16:24;;;;;;;9.25;5.30;;;10.40;99.90;;;;;;5018293;28;20037;-67
2022/12/31 06:18:50;;;;;;;6.88;4.53;;;10.50;99.90;;;;;;5020286;28;20044;-67
2022/12/31 06:21:20;;;;;;;8.55;4.85;;;10.50;99.90;;;;;;5020488;28;20671;-67
2022/12/31 06:23:46;;;;;;;9.43;5.60;;;10.50;99.90;;;;;;5024753;28;20037;-67
2022/12/31 06:26:12;;;;;;;10.18;5.45;;;10.50;99.90;;;;;;5020996;28;20258;-68
2022/12/31 06:28:38;;;;;;;9.93;5.07;;;10.50;99.90;;;;;;5018746;28;20060;-68
2022/12/31 06:31:06;;;;;;;8.27;4.63;;;10.50;99.90;;;;;;5020332;28;20038;-67
2022/12/31 06:33:32;;;;;;;10.63;4.25;;;10.50;99.90;;;;;;5025380;28;20049;-68
2022/12/31 06:36:00;;;;;;;6.60;3.60;;;10.50;99.90;;;;;;5020351;28;20136;-67
2022/12/31 06:38:27;;;;;;;7.07;3.42;;;10.50;99.90;;;;;;5011683;28;20038;-68
2022/12/31 06:40:53;;;;;;;4.63;2.80;;;10.40;99.90;;;;;;5008919;28;20080;-68
2022/12/31 06:43:19;;;;;;;6.50;3.45;;;10.40;99.90;;;;;;5023662;28;20065;-68
2022/12/31 06:45:44;;;;;;;5.28;3.17;;;10.40;99.90;;;;;;5023409;28;20037;-69
2022/12/31 06:48:10;;;;;;;5.25;3.28;;;10.40;99.90;;;;;;5020824;28;20040;-69
2022/12/31 06:50:36;;;;;;;5.45;3.80;;;10.50;99.90;;;;;;5028145;28;20033;-67
2022/12/31 06:53:01;;;;;;;6.93;3.72;;;10.40;99.90;;;;;;5024350;28;20068;-68
2022/12/31 06:55:27;;;;;;;5.85;3.45;;;10.50;99.90;;;;;;5021272;28;20856;-68
2022/12/31 06:57:53;;;;;;;6.82;3.40;;;10.40;99.90;;;;;;5019288;28;20129;-67
2022/12/31 07:00:19;;;;;;;5.63;3.47;;;10.50;99.90;;;;;;5014206;28;20037;-68
2022/12/31 07:03:08;;;;;;;5.85;3.33;;;10.40;99.90;;;;;;5010542;28;20042;-68
2022/12/31 07:05:41;;;;;;;4.97;3.30;;;10.40;99.90;;;;;;5018855;28;20038;-68
2022/12/31 07:08:38;;;;;;;6.00;2.80;;;10.40;99.90;;;;;;5023378;28;20363;-67
2022/12/31 07:11:19;;;;;;;7.30;3.13;;;10.40;99.90;;;;;;5005783;28;20053;-67
2022/12/31 07:14:11;;;;;;;7.88;3.15;;;10.50;99.90;;;;;;5020462;28;20041;-68
2022/12/31 07:17:01;;;;;;;5.07;3.08;;;10.40;99.90;;;;;;5027364;28;20052;-68
2022/12/31 07:19:26;;;;;;;4.80;2.58;;;10.40;99.90;;;;;;5033690;28;20038;-68
2022/12/31 07:21:54;;;;;;;4.50;2.67;;;10.40;99.90;;;;;;5032033;28;20096;-68
2022/12/31 07:24:20;;;;;;;5.07;3.03;;;10.40;99.90;;;;;;5024438;28;20048;-68
2022/12/31 07:27:07;;;;;;;7.93;3.45;;;10.30;99.90;;;;;;5023461;28;20362;-67
2022/12/31 07:29:52;;;;;;;7.00;4.03;;;10.40;99.90;;;;;;5025066;28;20042;-67
2022/12/31 07:32:40;;;;;;;8.43;3.80;;;10.40;99.90;;;;;;5023897;28;20064;-67
2022/12/31 07:35:20;;;;;;;8.25;3.83;;;10.50;99.90;;;;;;5024613;28;20527;-67
2022/12/31 07:38:21;;;;;;;6.55;3.80;;;10.40;99.90;;;;;;5019521;28;20560;-68
2022/12/31 07:41:05;;;;;;;7.55;4.07;;;10.50;99.90;;;;;;5027424;28;20156;-68
2022/12/31 07:43:43;;;;;;;7.80;4.50;;;10.40;99.90;;;;;;5027972;28;20037;-68
2022/12/31 07:46:21;;;;;;;8.23;4.43;;;10.40;99.90;;;;;;5029603;28;20108;-69
2022/12/31 07:48:47;;;;;;;8.32;4.53;;;10.40;99.90;;;;;;5023668;28;20068;-66
2022/12/31 07:51:13;;;;;;;11.15;5.05;;;10.40;99.90;;;;;;5031354;28;20489;-69
2022/12/31 07:53:38;;;;;;;9.07;4.40;;;10.50;99.90;;;;;;5025863;28;20046;-69
2022/12/31 07:56:07;;;;;;;10.02;4.60;;;10.40;99.90;;;;;;5026286;28;20144;-68
2022/12/31 07:58:38;;;;;;;8.35;4.05;;;10.40;99.90;;;;;;5024885;28;20045;-68
2022/12/31 08:01:08;;;;;;;11.75;4.07;;;10.50;99.90;;;;;;5023084;28;20049;-68
2022/12/31 08:03:53;;;;;;;8.52;4.03;;;10.50;99.90;;;;;;5029036;28;20060;-70
2022/12/31 08:06:46;;;;;;;6.55;3.58;;;10.60;99.90;;;;;;5023761;28;20037;-66
2022/12/31 08:09:40;;;;;;;5.95;3.20;;;10.50;99.90;;;;;;5020938;28;20068;-69
2022/12/31 08:12:07;;;;;;;6.93;3.45;;;10.60;99.90;;;;;;5027760;28;20049;-66
2022/12/31 08:14:39;;;;;;;7.13;3.17;;;10.60;99.90;;;;;;5026446;28;20440;-67
2022/12/31 08:17:04;;;;;;;9.02;3.40;;;10.60;99.90;;;;;;5027928;28;20128;-68
2022/12/31 08:19:31;;;;;;;5.47;2.92;;;10.60;99.90;;;;;;5028055;28;20124;-67
2022/12/31 08:22:07;;;;;;;7.20;3.60;;;10.70;99.90;;;;;;5026415;28;20033;-67
2022/12/31 08:24:54;;;;;;;6.10;2.88;;;10.60;99.90;;;;;;5026767;28;20030;-67
2022/12/31 08:27:27;;;;;;;6.10;3.03;;;10.70;99.90;;;;;;5027025;28;20406;-67
2022/12/31 08:30:16;;;;;;;7.32;3.40;;;10.60;99.90;;;;;;5025320;28;20130;-65
2022/12/31 08:33:01;;;;;;;6.68;3.70;;;10.80;99.90;;;;;;5026723;28;20042;-67
2022/12/31 08:35:53;;;;;;;9.70;3.95;;;10.70;99.90;;;;;;5026860;28;20382;-67
2022/12/31 08:39:00;;;;;;;7.70;3.90;;;10.80;99.90;;;;;;5017463;28;20044;-67
2022/12/31 08:41:40;;;;;;;8.88;3.70;;;10.70;99.90;;;;;;5022594;28;20099;-66
2022/12/31 08:44:34;;;;;;;8.48;4.25;;;10.90;99.90;;;;;;5030097;28;20091;-66
2022/12/31 08:47:08;;;;;;;8.95;4.32;;;10.80;99.90;;;;;;5026772;28;20048;-66
2022/12/31 08:49:34;;;;;;;12.52;4.70;;;10.90;99.90;;;;;;5029343;28;20075;-67
2022/12/31 08:52:01;;;;;;;15.48;4.90;;;10.80;99.90;;;;;;5025659;28;20045;-66
2022/12/31 08:54:27;;;;;;;11.07;4.75;;;10.90;99.90;;;;;;5023451;28;20688;-65
2022/12/31 08:57:17;;;;;;;10.85;4.63;;;10.90;99.90;;;;;;5028157;28;20069;-65
2022/12/31 09:00:01;;;;;;;9.82;4.82;;;11.10;99.90;;;;;;5028196;28;20040;-66
2022/12/31 09:03:02;;;;;;;11.25;5.60;;;11.20;99.90;;;;;;5026058;28;20033;-66
2022/12/31 09:05:57;;;;;;;9.18;5.10;;;11.10;99.90;;;;;;5029823;28;20950;-65
2022/12/31 09:08:37;;;;;;;10.07;5.03;;;11.40;99.90;;;;;;5028008;28;20051;-65
2022/12/31 09:11:06;;;;;;;11.40;5.50;;;11.20;99.90;;;;;;5030234;28;20042;-65
2022/12/31 09:14:00;;;;;;;9.50;4.60;;;11.60;99.90;;;;;;5025754;28;20060;-65
2022/12/31 09:16:45;;;;;;;10.02;5.68;;;11.50;99.90;;;;;;5024609;28;20041;-65
2022/12/31 09:19:10;;;;;;;7.78;4.78;;;11.60;99.90;;;;;;5025493;28;20033;-67
2022/12/31 09:21:37;;;;;;;9.23;5.82;;;11.70;99.90;;;;;;5029887;28;20466;-66
2022/12/31 09:24:03;;;;;;;12.68;5.40;;;11.60;99.90;;;;;;5027097;28;20620;-65
2022/12/31 09:27:00;;;;;;;10.73;5.00;;;11.90;99.90;;;;;;5025279;28;20466;-64
2022/12/31 09:29:50;;;;;;;11.82;5.72;;;12.00;99.90;;;;;;5027388;28;20041;-65
2022/12/31 09:32:18;;;;;;;8.20;4.15;;;11.90;99.90;;;;;;5029744;28;20920;-64
2022/12/31 09:34:53;;;;;;;7.65;4.15;;;11.90;99.90;;;;;;5028282;28;20121;-65
2022/12/31 09:37:43;;;;;;;5.45;3.38;;;11.90;99.90;;;;;;5020891;28;20455;-64
2022/12/31 09:40:39;;;;;;;5.38;3.60;;;11.80;99.90;;;;;;5026408;28;20048;-64
2022/12/31 09:43:36;;;;;;;6.47;3.35;;;11.80;99.90;;;;;;5021761;28;20116;-63
2022/12/31 09:46:11;;;;;;;4.55;3.38;;;12.00;99.90;;;;;;5026522;28;20144;-66
2022/12/31 09:49:06;;;;;;;4.20;2.83;;;11.90;99.90;;;;;;5022451;28;20041;-64
2022/12/31 09:51:58;;;;;;;5.00;2.92;;;12.10;99.90;;;;;;5022452;28;20132;-66
2022/12/31 09:54:35;;;;;;;3.63;2.40;;;12.10;99.90;;;;;;5011365;28;20049;-64
2022/12/31 09:57:33;;;;;;;4.03;2.40;;;12.00;99.90;;;;;;5010819;28;20060;-64
2022/12/31 10:00:27;;;;;;;3.45;2.00;;;11.90;99.90;;;;;;5011771;28;20532;-64
2022/12/31 10:03:14;;;;;;;1.58;1.23;;;12.00;99.90;;;;;;5012020;28;20044;-66
2022/12/31 10:05:43;;;;;;;4.35;1.83;;;12.10;99.90;;;;;;5018311;28;20088;-65
2022/12/31 10:08:51;;;;;;;3.70;1.40;;;12.00;99.90;;;;;;5011686;28;20038;-65
2022/12/31 10:11:32;;;;;;;1.60;1.20;;;12.20;99.90;;;;;;5027072;28;20045;-64
2022/12/31 10:14:18;;;;;;;1.55;1.13;;;12.30;99.90;;;;;;5013158;28;20405;-65
2022/12/31 10:17:16;;;;;;;2.55;1.23;;;12.10;99.90;;;;;;5019625;28;20057;-65
2022/12/31 10:20:05;;;;;;;1.52;1.20;;;12.30;99.90;;;;;;5005615;28;20046;-63
2022/12/31 10:22:44;;;;;;;2.83;1.40;;;12.20;99.90;;;;;;5014380;28;20047;-65
2022/12/31 10:25:28;;;;;;;2.78;1.10;;;12.20;99.90;;;;;;5003026;28;20393;-64
2022/12/31 10:28:03;;;;;;;1.70;1.20;;;12.10;99.90;;;;;;4998672;28;20041;-67
2022/12/31 10:30:34;;;;;;;1.95;1.60;;;12.10;99.90;;;;;;5018140;28;20038;-64
2022/12/31 10:33:17;;;;;;;;;;;12.20;99.90;;;;;;5024513;28;20383;-66
2022/12/31 10:35:42;;;;;;;1.85;1.15;;;12.20;99.90;;;;;;5023551;28;19932;-65
2022/12/31 10:38:37;;;;;;;5.07;1.42;;;12.20;99.90;;;;;;5013015;28;20049;-67
2022/12/31 10:41:45;;;;;;;3.25;2.20;;;12.30;99.90;;;;;;5023367;28;20042;-64
2022/12/31 10:44:54;;;;;;;5.72;2.53;;;12.30;99.90;;;;;;5021859;28;20116;-65
2022/12/31 10:48:03;;;;;;;3.20;1.90;;;12.40;99.90;;;;;;4993680;28;20429;-65
2022/12/31 10:50:53;;;;;;;2.95;1.55;;;12.40;99.90;;;;;;5011117;28;20121;-66
2022/12/31 10:53:24;;;;;;;5.22;1.92;;;12.30;99.90;;;;;;5014030;28;20414;-66
2022/12/31 10:56:31;;;;;;;4.47;1.50;;;12.20;99.90;;;;;;5022162;28;20449;-65
2022/12/31 10:59:34;;;;;;;3.40;1.35;;;12.30;99.90;;;;;;5007724;28;20054;-64
2022/12/31 11:02:15;;;;;;;3.33;1.40;;;12.40;99.90;;;;;;5016367;28;20034;-66
2022/12/31 11:04:46;;;;;;;;;;;12.50;99.90;;;;;;5030477;28;20868;-62
2022/12/31 11:07:39;;;;;;;3.67;1.40;;;12.40;99.90;;;;;;5009666;28;19921;-65
2022/12/31 11:10:32;;;;;;;3.42;1.65;;;12.40;99.90;;;;;;5022733;28;20046;-66
2022/12/31 11:13:34;;;;;;;4.47;1.77;;;12.50;99.90;;;;;;5024774;28;20444;-66
2022/12/31 11:16:19;;;;;;;2.45;1.33;;;12.50;99.90;;;;;;5034042;28;20037;-65
2022/12/31 11:18:57;;;;;;;5.40;1.70;;;12.50;99.90;;;;;;5014826;28;20029;-67
2022/12/31 11:21:41;;;;;;;3.65;1.80;;;12.40;99.90;;;;;;5024078;28;20048;-64
2022/12/31 11:24:27;;;;;;;7.70;2.10;;;12.40;99.90;;;;;;5017458;28;20406;-66
2022/12/31 11:27:07;;;;;;;4.47;2.00;;;12.60;99.90;;;;;;5025732;28;20381;-66
2022/12/31 11:29:47;;;;;;;5.47;2.20;;;12.50;99.90;;;;;;5030616;28;20057;-65
2022/12/31 11:32:31;;;;;;;4.35;2.35;;;12.60;99.90;;;;;;5025828;28;21094;-66
2022/12/31 11:35:40;;;;;;;3.92;2.22;;;12.60;99.90;;;;;;5027130;28;20045;-65
2022/12/31 11:38:24;;;;;;;5.05;2.58;;;12.40;99.90;;;;;;5008893;28;20364;-66
2022/12/31 11:41:08;;;;;;;4.13;1.80;;;12.70;99.90;;;;;;5026360;28;20089;-64
2022/12/31 11:43:52;;;;;;;5.57;2.47;;;12.60;99.90;;;;;;5023311;28;20087;-66
2022/12/31 11:46:31;;;;;;;6.63;2.42;;;12.70;99.90;;;;;;5028475;28;20087;-64
2022/12/31 11:49:34;;;;;;;5.38;2.63;;;12.30;99.90;;;;;;5030704;28;20820;-69
2022/12/31 11:52:33;;;;;;;4.72;2.50;;;12.50;99.90;;;;;;5023886;28;20038;-66
2022/12/31 11:55:07;;;;;;;3.85;2.10;;;12.80;99.90;;;;;;5025255;28;20045;-65
2022/12/31 11:57:35;;;;;;;6.32;3.08;;;12.60;99.90;;;;;;5026974;28;20045;-65
2022/12/31 12:00:15;;;;;;;4.72;3.00;;;12.60;99.90;;;;;;5027105;28;20064;-66
2022/12/31 12:02:49;;;;;;;6.43;3.07;;;12.50;99.90;;;;;;5028729;28;20064;-64
2022/12/31 12:05:19;;;;;;;7.72;4.00;;;12.60;99.90;;;;;;5029292;28;20422;-66
2022/12/31 12:07:46;;;;;;;10.93;5.35;;;12.80;99.90;;;;;;5028415;28;20044;-66
2022/12/31 12:10:26;;;;;;;8.43;4.85;;;12.70;99.90;;;;;;5031201;28;20041;-65
2022/12/31 12:12:52;;;;;;;;;;;12.80;99.90;;;;;;5025254;28;20460;-66
2022/12/31 12:15:36;;;;;;;7.65;3.40;;;12.90;99.90;;;;;;5025734;28;19923;-65
2022/12/31 12:18:08;;;;;;;9.80;4.00;;;12.60;99.90;;;;;;5027624;28;20053;-66
2022/12/31 12:20:37;;;;;;;4.47;3.42;;;12.90;99.90;;;;;;5030981;28;20037;-64
2022/12/31 12:23:20;;;;;;;8.80;3.80;;;12.70;99.90;;;;;;5031237;28;20057;-64
2022/12/31 12:25:45;;;;;;;8.65;3.50;;;13.00;99.90;;;;;;5025340;28;20096;-64
2022/12/31 12:28:17;;;;;;;8.48;4.22;;;12.80;99.90;;;;;;5024637;28;20469;-65
2022/12/31 12:30:45;;;;;;;7.78;3.70;;;12.90;99.90;;;;;;5032991;28;20049;-66
2022/12/31 12:33:16;;;;;;;13.45;3.67;;;12.70;99.90;;;;;;5031547;28;20052;-66
2022/12/31 12:35:42;;;;;;;7.38;3.45;;;13.00;99.90;;;;;;5029599;28;20714;-64
2022/12/31 12:38:22;;;;;;;7.88;3.53;;;13.20;99.90;;;;;;5025638;28;20156;-65
2022/12/31 12:40:59;;;;;;;7.38;3.28;;;12.80;99.90;;;;;;5024292;28;20026;-65
2022/12/31 12:43:28;;;;;;;5.88;2.95;;;12.80;99.90;;;;;;5030988;28;20041;-64
2022/12/31 12:46:00;;;;;;;5.90;3.50;;;13.00;99.90;;;;;;5031316;28;20144;-65
2022/12/31 12:48:40;;;;;;;3.88;2.38;;;12.90;99.90;;;;;;5017197;28;20425;-66
2022/12/31 12:51:32;;;;;;;6.45;3.50;;;13.10;99.90;;;;;;5026944;28;20037;-64
2022/12/31 12:54:26;;;;;;;7.15;2.20;;;12.80;99.90;;;;;;5022427;28;20049;-65
2022/12/31 12:57:26;;;;;;;11.73;5.13;;;12.80;99.90;;;;;;5026892;28;20057;-65
2022/12/31 13:00:23;;;;;;;9.88;4.72;;;13.00;99.90;;;;;;5018563;28;20049;-65
2022/12/31 13:03:19;;;;;;;6.25;3.33;;;12.80;99.90;;;;;;5029102;28;20034;-64
2022/12/31 13:06:08;;;;;;;5.22;3.15;;;12.80;99.90;;;;;;5028076;28;20773;-64
2022/12/31 13:09:11;;;;;;;5.82;2.75;;;13.00;99.90;;;;;;5030652;28;20099;-66
2022/12/31 13:12:17;;;;;;;8.10;3.00;;;12.60;99.90;;;;;;5029008;28;20124;-64
2022/12/31 13:15:02;;;;;;;7.07;2.92;;;12.70;99.90;;;;;;5013499;28;20041;-66
2022/12/31 13:17:52;;;;;;;5.38;2.60;;;12.80;99.90;;;;;;5028111;28;20591;-66
2022/12/31 13:20:31;;;;;;;8.55;3.80;;;12.90;99.90;;;;;;5033411;28;20543;-67
2022/12/31 13:23:10;;;;;;;7.85;2.28;;;12.80;99.90;;;;;;5031372;28;20179;-68
2022/12/31 13:26:03;;;;;;;5.95;2.83;;;12.60;99.90;;;;;;5022863;28;20049;-67
2022/12/31 13:28:30;;;;;;;4.65;2.50;;;12.80;99.90;;;;;;5022212;28;20049;-66
2022/12/31 13:31:04;;;;;;;6.15;3.03;;;12.90;99.90;;;;;;5021111;28;20048;-66
2022/12/31 13:33:48;;;;;;;11.50;3.30;;;12.80;99.90;;;;;;5025386;28;20056;-66